sensor_id;sensor_type;location;lat;lon;timestamp;P1;durP1;ratioP1;P2;durP2;ratioP2
5147;SDS011;2592;48.140;7.614;2023-02-17T00:00:25;12.93;;;7.90;;
5147;SDS011;2592;48.140;7.614;2023-02-17T00:02:54;8.13;;;5.27;;
5147;SDS011;2592;48.140;7.614;2023-02-17T00:05:21;8.93;;;4.57;;
5147;SDS011;2592;48.140;7.614;2023-02-17T00:07:47;8.87;;;5.60;;
5147;SDS011;2592;48.140;7.614;2023-02-17T00:10:14;8.63;;;5.37;;
5147;SDS011;2592;48.140;7.614;2023-02-17T00:12:41;7.87;;;5.13;;
5147;SDS011;2592;48.140;7.614;2023-02-17T00:15:08;8.57;;;5.80;;
5147;SDS011;2592;48.140;7.614;2023-02-17T00:17:34;8.10;;;5.97;;
5147;SDS011;2592;48.140;7.614;2023-02-17T00:20:01;10.23;;;5.50;;
5147;SDS011;2592;48.140;7.614;2023-02-17T00:22:27;9.50;;;6.17;;
5147;SDS011;2592;48.140;7.614;2023-02-17T00:24:53;8.43;;;5.90;;
5147;SDS011;2592;48.140;7.614;2023-02-17T00:27:21;9.43;;;5.30;;
5147;SDS011;2592;48.140;7.614;2023-02-17T00:29:49;8.70;;;5.43;;
5147;SDS011;2592;48.140;7.614;2023-02-17T00:32:15;11.43;;;5.90;;
5147;SDS011;2592;48.140;7.614;2023-02-17T00:34:41;9.07;;;5.73;;
5147;SDS011;2592;48.140;7.614;2023-02-17T00:37:08;7.40;;;5.60;;
5147;SDS011;2592;48.140;7.614;2023-02-17T00:39:34;9.27;;;5.80;;
5147;SDS011;2592;48.140;7.614;2023-02-17T00:42:01;9.70;;;5.37;;
5147;SDS011;2592;48.140;7.614;2023-02-17T00:44:27;6.80;;;5.90;;
5147;SDS011;2592;48.140;7.614;2023-02-17T00:46:55;8.90;;;5.93;;
5147;SDS011;2592;48.140;7.614;2023-02-17T00:49:22;9.57;;;6.50;;
5147;SDS011;2592;48.140;7.614;2023-02-17T00:51:49;8.60;;;5.90;;
5147;SDS011;2592;48.140;7.614;2023-02-17T00:54:16;9.20;;;6.33;;
5147;SDS011;2592;48.140;7.614;2023-02-17T00:56:42;12.80;;;6.63;;
5147;SDS011;2592;48.140;7.614;2023-02-17T00:59:09;10.57;;;6.80;;
5147;SDS011;2592;48.140;7.614;2023-02-17T01:01:36;15.50;;;6.37;;
5147;SDS011;2592;48.140;7.614;2023-02-17T01:04:04;9.70;;;5.80;;
5147;SDS011;2592;48.140;7.614;2023-02-17T01:06:31;10.17;;;6.90;;
5147;SDS011;2592;48.140;7.614;2023-02-17T01:08:58;8.63;;;6.43;;
5147;SDS011;2592;48.140;7.614;2023-02-17T01:11:27;9.40;;;6.40;;
5147;SDS011;2592;48.140;7.614;2023-02-17T01:13:54;15.80;;;5.97;;
5147;SDS011;2592;48.140;7.614;2023-02-17T01:16:21;12.00;;;6.47;;
5147;SDS011;2592;48.140;7.614;2023-02-17T01:18:48;10.90;;;5.50;;
5147;SDS011;2592;48.140;7.614;2023-02-17T01:21:17;11.63;;;6.27;;
5147;SDS011;2592;48.140;7.614;2023-02-17T01:23:43;10.90;;;6.27;;
5147;SDS011;2592;48.140;7.614;2023-02-17T01:26:12;10.80;;;5.93;;
5147;SDS011;2592;48.140;7.614;2023-02-17T01:28:38;9.67;;;6.40;;
5147;SDS011;2592;48.140;7.614;2023-02-17T01:31:05;11.43;;;7.00;;
5147;SDS011;2592;48.140;7.614;2023-02-17T01:33:31;11.23;;;6.77;;
5147;SDS011;2592;48.140;7.614;2023-02-17T01:36:00;8.53;;;6.00;;
5147;SDS011;2592;48.140;7.614;2023-02-17T01:38:28;10.57;;;6.90;;
5147;SDS011;2592;48.140;7.614;2023-02-17T01:40:54;18.20;;;10.23;;
5147;SDS011;2592;48.140;7.614;2023-02-17T01:43:20;9.10;;;7.13;;
5147;SDS011;2592;48.140;7.614;2023-02-17T01:45:49;12.33;;;6.97;;
5147;SDS011;2592;48.140;7.614;2023-02-17T01:48:16;12.03;;;6.53;;
5147;SDS011;2592;48.140;7.614;2023-02-17T01:50:45;10.30;;;6.57;;
5147;SDS011;2592;48.140;7.614;2023-02-17T01:53:13;7.83;;;5.73;;
5147;SDS011;2592;48.140;7.614;2023-02-17T01:55:41;8.57;;;6.43;;
5147;SDS011;2592;48.140;7.614;2023-02-17T01:58:08;10.13;;;7.00;;
5147;SDS011;2592;48.140;7.614;2023-02-17T02:00:36;12.63;;;6.43;;
5147;SDS011;2592;48.140;7.614;2023-02-17T02:03:03;9.73;;;6.87;;
5147;SDS011;2592;48.140;7.614;2023-02-17T02:05:31;10.30;;;6.67;;
5147;SDS011;2592;48.140;7.614;2023-02-17T02:07:58;9.57;;;6.30;;
5147;SDS011;2592;48.140;7.614;2023-02-17T02:10:24;18.43;;;6.47;;
5147;SDS011;2592;48.140;7.614;2023-02-17T02:12:52;8.63;;;5.63;;
5147;SDS011;2592;48.140;7.614;2023-02-17T02:15:20;10.73;;;5.60;;
5147;SDS011;2592;48.140;7.614;2023-02-17T02:17:51;7.97;;;5.97;;
5147;SDS011;2592;48.140;7.614;2023-02-17T02:20:38;11.53;;;6.40;;
5147;SDS011;2592;48.140;7.614;2023-02-17T02:23:15;8.27;;;6.00;;
5147;SDS011;2592;48.140;7.614;2023-02-17T02:26:03;11.97;;;5.77;;
5147;SDS011;2592;48.140;7.614;2023-02-17T02:28:40;14.90;;;6.30;;
5147;SDS011;2592;48.140;7.614;2023-02-17T02:31:17;8.57;;;6.13;;
5147;SDS011;2592;48.140;7.614;2023-02-17T02:33:50;16.97;;;7.00;;
5147;SDS011;2592;48.140;7.614;2023-02-17T02:36:18;9.97;;;5.30;;
5147;SDS011;2592;48.140;7.614;2023-02-17T02:38:49;8.43;;;5.77;;
5147;SDS011;2592;48.140;7.614;2023-02-17T02:41:18;13.00;;;5.20;;
5147;SDS011;2592;48.140;7.614;2023-02-17T02:43:46;10.77;;;6.23;;
5147;SDS011;2592;48.140;7.614;2023-02-17T02:46:13;12.13;;;5.83;;
5147;SDS011;2592;48.140;7.614;2023-02-17T02:48:39;8.70;;;6.10;;
5147;SDS011;2592;48.140;7.614;2023-02-17T02:51:17;10.80;;;6.50;;
5147;SDS011;2592;48.140;7.614;2023-02-17T02:53:49;8.37;;;5.73;;
5147;SDS011;2592;48.140;7.614;2023-02-17T02:56:21;13.90;;;7.27;;
5147;SDS011;2592;48.140;7.614;2023-02-17T02:58:53;11.00;;;6.00;;
5147;SDS011;2592;48.140;7.614;2023-02-17T03:01:25;8.30;;;5.63;;
5147;SDS011;2592;48.140;7.614;2023-02-17T03:03:56;9.80;;;7.17;;
5147;SDS011;2592;48.140;7.614;2023-02-17T03:06:27;9.60;;;6.83;;
5147;SDS011;2592;48.140;7.614;2023-02-17T03:08:56;11.37;;;5.90;;
5147;SDS011;2592;48.140;7.614;2023-02-17T03:11:24;20.50;;;7.40;;
5147;SDS011;2592;48.140;7.614;2023-02-17T03:13:59;9.40;;;6.20;;
5147;SDS011;2592;48.140;7.614;2023-02-17T03:16:25;9.53;;;7.03;;
5147;SDS011;2592;48.140;7.614;2023-02-17T03:18:52;8.30;;;6.00;;
5147;SDS011;2592;48.140;7.614;2023-02-17T03:21:18;15.93;;;10.27;;
5147;SDS011;2592;48.140;7.614;2023-02-17T03:23:46;9.00;;;6.23;;
5147;SDS011;2592;48.140;7.614;2023-02-17T03:26:12;9.23;;;6.20;;
5147;SDS011;2592;48.140;7.614;2023-02-17T03:28:39;12.10;;;5.70;;
5147;SDS011;2592;48.140;7.614;2023-02-17T03:31:05;11.77;;;6.60;;
5147;SDS011;2592;48.140;7.614;2023-02-17T03:33:32;10.27;;;6.07;;
5147;SDS011;2592;48.140;7.614;2023-02-17T03:35:58;10.40;;;6.27;;
5147;SDS011;2592;48.140;7.614;2023-02-17T03:38:24;11.10;;;5.90;;
5147;SDS011;2592;48.140;7.614;2023-02-17T03:40:52;7.90;;;5.73;;
5147;SDS011;2592;48.140;7.614;2023-02-17T03:43:18;9.27;;;6.13;;
5147;SDS011;2592;48.140;7.614;2023-02-17T03:45:45;5.63;;;5.03;;
5147;SDS011;2592;48.140;7.614;2023-02-17T03:48:11;8.10;;;5.73;;
5147;SDS011;2592;48.140;7.614;2023-02-17T03:50:38;9.27;;;6.50;;
5147;SDS011;2592;48.140;7.614;2023-02-17T03:53:04;9.63;;;5.70;;
5147;SDS011;2592;48.140;7.614;2023-02-17T03:55:30;11.00;;;6.20;;
5147;SDS011;2592;48.140;7.614;2023-02-17T03:57:58;10.10;;;5.63;;
5147;SDS011;2592;48.140;7.614;2023-02-17T04:00:24;9.03;;;5.87;;
5147;SDS011;2592;48.140;7.614;2023-02-17T04:02:51;12.30;;;6.93;;
5147;SDS011;2592;48.140;7.614;2023-02-17T04:05:17;9.00;;;6.10;;
5147;SDS011;2592;48.140;7.614;2023-02-17T04:07:44;7.50;;;6.03;;
5147;SDS011;2592;48.140;7.614;2023-02-17T04:10:10;10.77;;;5.43;;
5147;SDS011;2592;48.140;7.614;2023-02-17T04:12:36;31.10;;;17.00;;
5147;SDS011;2592;48.140;7.614;2023-02-17T04:15:04;15.40;;;5.97;;
5147;SDS011;2592;48.140;7.614;2023-02-17T04:17:31;8.70;;;5.80;;
5147;SDS011;2592;48.140;7.614;2023-02-17T04:19:57;9.10;;;4.80;;
5147;SDS011;2592;48.140;7.614;2023-02-17T04:22:24;9.60;;;5.30;;
5147;SDS011;2592;48.140;7.614;2023-02-17T04:24:50;10.60;;;5.50;;
5147;SDS011;2592;48.140;7.614;2023-02-17T04:27:16;13.30;;;6.33;;
5147;SDS011;2592;48.140;7.614;2023-02-17T04:29:43;11.63;;;7.00;;
5147;SDS011;2592;48.140;7.614;2023-02-17T04:32:10;7.10;;;4.90;;
5147;SDS011;2592;48.140;7.614;2023-02-17T04:34:37;8.77;;;5.23;;
5147;SDS011;2592;48.140;7.614;2023-02-17T04:37:03;11.23;;;5.50;;
5147;SDS011;2592;48.140;7.614;2023-02-17T04:39:30;9.03;;;6.07;;
5147;SDS011;2592;48.140;7.614;2023-02-17T04:41:56;10.47;;;5.93;;
5147;SDS011;2592;48.140;7.614;2023-02-17T04:44:22;7.30;;;5.80;;
5147;SDS011;2592;48.140;7.614;2023-02-17T04:46:49;9.47;;;6.10;;
5147;SDS011;2592;48.140;7.614;2023-02-17T04:49:17;9.67;;;5.80;;
5147;SDS011;2592;48.140;7.614;2023-02-17T04:51:43;12.27;;;6.03;;
5147;SDS011;2592;48.140;7.614;2023-02-17T04:54:09;13.23;;;6.10;;
5147;SDS011;2592;48.140;7.614;2023-02-17T04:56:36;10.33;;;6.63;;
5147;SDS011;2592;48.140;7.614;2023-02-17T04:59:02;11.60;;;6.93;;
5147;SDS011;2592;48.140;7.614;2023-02-17T05:01:28;15.00;;;6.30;;
5147;SDS011;2592;48.140;7.614;2023-02-17T05:03:55;18.60;;;8.90;;
5147;SDS011;2592;48.140;7.614;2023-02-17T05:06:22;14.00;;;8.00;;
5147;SDS011;2592;48.140;7.614;2023-02-17T05:08:49;8.47;;;6.53;;
5147;SDS011;2592;48.140;7.614;2023-02-17T05:11:17;14.50;;;6.40;;
5147;SDS011;2592;48.140;7.614;2023-02-17T05:13:44;11.50;;;7.37;;
5147;SDS011;2592;48.140;7.614;2023-02-17T05:16:10;15.23;;;7.27;;
5147;SDS011;2592;48.140;7.614;2023-02-17T05:18:36;12.60;;;7.40;;
5147;SDS011;2592;48.140;7.614;2023-02-17T05:21:03;9.47;;;6.20;;
5147;SDS011;2592;48.140;7.614;2023-02-17T05:23:31;13.47;;;6.33;;
5147;SDS011;2592;48.140;7.614;2023-02-17T05:25:57;10.13;;;5.63;;
5147;SDS011;2592;48.140;7.614;2023-02-17T05:28:23;11.00;;;5.70;;
5147;SDS011;2592;48.140;7.614;2023-02-17T05:30:50;8.27;;;5.27;;
5147;SDS011;2592;48.140;7.614;2023-02-17T05:33:16;10.90;;;5.83;;
5147;SDS011;2592;48.140;7.614;2023-02-17T05:35:42;10.47;;;6.27;;
5147;SDS011;2592;48.140;7.614;2023-02-17T05:38:09;7.90;;;4.90;;
5147;SDS011;2592;48.140;7.614;2023-02-17T05:40:37;10.63;;;5.97;;
5147;SDS011;2592;48.140;7.614;2023-02-17T05:43:03;6.53;;;5.13;;
5147;SDS011;2592;48.140;7.614;2023-02-17T05:45:29;9.10;;;5.43;;
5147;SDS011;2592;48.140;7.614;2023-02-17T05:47:56;15.70;;;6.03;;
5147;SDS011;2592;48.140;7.614;2023-02-17T05:50:22;10.00;;;6.10;;
5147;SDS011;2592;48.140;7.614;2023-02-17T05:52:49;8.13;;;5.20;;
5147;SDS011;2592;48.140;7.614;2023-02-17T05:55:15;11.73;;;7.57;;
5147;SDS011;2592;48.140;7.614;2023-02-17T05:57:43;11.03;;;5.67;;
5147;SDS011;2592;48.140;7.614;2023-02-17T06:00:10;8.37;;;5.90;;
5147;SDS011;2592;48.140;7.614;2023-02-17T06:02:36;8.60;;;5.23;;
5147;SDS011;2592;48.140;7.614;2023-02-17T06:05:03;7.43;;;4.90;;
5147;SDS011;2592;48.140;7.614;2023-02-17T06:07:29;8.00;;;4.90;;
5147;SDS011;2592;48.140;7.614;2023-02-17T06:09:55;11.97;;;4.60;;
5147;SDS011;2592;48.140;7.614;2023-02-17T06:12:22;8.60;;;5.10;;
5147;SDS011;2592;48.140;7.614;2023-02-17T06:14:50;7.17;;;3.87;;
5147;SDS011;2592;48.140;7.614;2023-02-17T06:17:16;9.43;;;4.03;;
5147;SDS011;2592;48.140;7.614;2023-02-17T06:19:43;3.30;;;3.00;;
5147;SDS011;2592;48.140;7.614;2023-02-17T06:22:09;3.60;;;2.70;;
5147;SDS011;2592;48.140;7.614;2023-02-17T06:24:35;10.10;;;2.90;;
5147;SDS011;2592;48.140;7.614;2023-02-17T06:27:02;6.17;;;2.60;;
5147;SDS011;2592;48.140;7.614;2023-02-17T06:29:28;2.50;;;1.90;;
5147;SDS011;2592;48.140;7.614;2023-02-17T06:31:56;3.93;;;2.57;;
5147;SDS011;2592;48.140;7.614;2023-02-17T06:34:22;3.90;;;2.87;;
5147;SDS011;2592;48.140;7.614;2023-02-17T06:36:49;12.00;;;3.03;;
5147;SDS011;2592;48.140;7.614;2023-02-17T06:39:15;7.43;;;4.20;;
5147;SDS011;2592;48.140;7.614;2023-02-17T06:41:42;6.80;;;3.47;;
5147;SDS011;2592;48.140;7.614;2023-02-17T06:44:08;6.17;;;5.03;;
5147;SDS011;2592;48.140;7.614;2023-02-17T06:46:35;8.20;;;5.67;;
5147;SDS011;2592;48.140;7.614;2023-02-17T06:49:02;12.03;;;5.83;;
5147;SDS011;2592;48.140;7.614;2023-02-17T06:51:29;3.60;;;3.10;;
5147;SDS011;2592;48.140;7.614;2023-02-17T06:53:55;10.47;;;2.90;;
5147;SDS011;2592;48.140;7.614;2023-02-17T06:56:22;4.77;;;2.20;;
5147;SDS011;2592;48.140;7.614;2023-02-17T06:58:48;9.20;;;3.03;;
5147;SDS011;2592;48.140;7.614;2023-02-17T07:01:15;5.13;;;2.77;;
5147;SDS011;2592;48.140;7.614;2023-02-17T07:03:42;4.13;;;2.97;;
5147;SDS011;2592;48.140;7.614;2023-02-17T07:06:10;3.30;;;2.20;;
5147;SDS011;2592;48.140;7.614;2023-02-17T07:08:37;2.93;;;2.17;;
5147;SDS011;2592;48.140;7.614;2023-02-17T07:11:03;5.77;;;2.33;;
5147;SDS011;2592;48.140;7.614;2023-02-17T07:13:30;7.20;;;3.43;;
5147;SDS011;2592;48.140;7.614;2023-02-17T07:15:56;7.77;;;3.40;;
5147;SDS011;2592;48.140;7.614;2023-02-17T07:18:22;9.53;;;2.90;;
5147;SDS011;2592;48.140;7.614;2023-02-17T07:20:49;3.60;;;2.43;;
5147;SDS011;2592;48.140;7.614;2023-02-17T07:23:17;5.57;;;4.33;;
5147;SDS011;2592;48.140;7.614;2023-02-17T07:25:43;7.20;;;3.43;;
5147;SDS011;2592;48.140;7.614;2023-02-17T07:28:10;6.70;;;3.30;;
5147;SDS011;2592;48.140;7.614;2023-02-17T07:30:36;6.33;;;3.00;;
5147;SDS011;2592;48.140;7.614;2023-02-17T07:33:03;5.80;;;3.27;;
5147;SDS011;2592;48.140;7.614;2023-02-17T07:35:29;5.77;;;3.60;;
5147;SDS011;2592;48.140;7.614;2023-02-17T07:37:56;6.47;;;4.23;;
5147;SDS011;2592;48.140;7.614;2023-02-17T07:40:24;7.10;;;3.60;;
5147;SDS011;2592;48.140;7.614;2023-02-17T07:42:50;8.77;;;4.13;;
5147;SDS011;2592;48.140;7.614;2023-02-17T07:45:16;8.47;;;3.83;;
5147;SDS011;2592;48.140;7.614;2023-02-17T07:47:43;7.77;;;4.40;;
5147;SDS011;2592;48.140;7.614;2023-02-17T07:50:09;6.30;;;3.47;;
5147;SDS011;2592;48.140;7.614;2023-02-17T07:52:36;9.53;;;3.93;;
5147;SDS011;2592;48.140;7.614;2023-02-17T07:55:02;7.37;;;3.67;;
5147;SDS011;2592;48.140;7.614;2023-02-17T07:57:30;5.00;;;3.57;;
5147;SDS011;2592;48.140;7.614;2023-02-17T07:59:57;5.73;;;3.87;;
5147;SDS011;2592;48.140;7.614;2023-02-17T08:02:23;4.90;;;3.97;;
5147;SDS011;2592;48.140;7.614;2023-02-17T08:04:50;12.77;;;4.27;;
5147;SDS011;2592;48.140;7.614;2023-02-17T08:07:16;5.67;;;3.57;;
5147;SDS011;2592;48.140;7.614;2023-02-17T08:09:42;13.40;;;4.10;;
5147;SDS011;2592;48.140;7.614;2023-02-17T08:12:26;9.37;;;3.90;;
5147;SDS011;2592;48.140;7.614;2023-02-17T08:15:12;8.10;;;3.97;;
5147;SDS011;2592;48.140;7.614;2023-02-17T08:17:38;5.37;;;4.40;;
5147;SDS011;2592;48.140;7.614;2023-02-17T08:20:05;6.70;;;4.37;;
5147;SDS011;2592;48.140;7.614;2023-02-17T08:22:32;6.90;;;3.77;;
5147;SDS011;2592;48.140;7.614;2023-02-17T08:24:58;7.50;;;4.87;;
5147;SDS011;2592;48.140;7.614;2023-02-17T08:27:25;8.97;;;5.20;;
5147;SDS011;2592;48.140;7.614;2023-02-17T08:29:51;5.43;;;4.40;;
5147;SDS011;2592;48.140;7.614;2023-02-17T08:32:19;7.70;;;3.70;;
5147;SDS011;2592;48.140;7.614;2023-02-17T08:34:45;4.40;;;3.10;;
5147;SDS011;2592;48.140;7.614;2023-02-17T08:37:11;3.90;;;3.00;;
5147;SDS011;2592;48.140;7.614;2023-02-17T08:39:38;4.03;;;2.60;;
5147;SDS011;2592;48.140;7.614;2023-02-17T08:42:04;6.30;;;2.90;;
5147;SDS011;2592;48.140;7.614;2023-02-17T08:44:32;6.37;;;2.90;;
5147;SDS011;2592;48.140;7.614;2023-02-17T08:46:59;4.80;;;2.50;;
5147;SDS011;2592;48.140;7.614;2023-02-17T08:49:27;6.63;;;3.53;;
5147;SDS011;2592;48.140;7.614;2023-02-17T08:51:56;5.03;;;2.77;;
5147;SDS011;2592;48.140;7.614;2023-02-17T08:54:22;3.50;;;3.00;;
5147;SDS011;2592;48.140;7.614;2023-02-17T08:56:49;4.23;;;2.30;;
5147;SDS011;2592;48.140;7.614;2023-02-17T08:59:15;4.00;;;2.67;;
5147;SDS011;2592;48.140;7.614;2023-02-17T09:01:42;6.00;;;3.17;;
5147;SDS011;2592;48.140;7.614;2023-02-17T09:04:10;3.40;;;2.50;;
5147;SDS011;2592;48.140;7.614;2023-02-17T09:06:38;9.63;;;4.80;;
5147;SDS011;2592;48.140;7.614;2023-02-17T09:09:05;3.27;;;2.47;;
5147;SDS011;2592;48.140;7.614;2023-02-17T09:11:33;7.67;;;3.33;;
5147;SDS011;2592;48.140;7.614;2023-02-17T09:13:59;5.20;;;3.40;;
5147;SDS011;2592;48.140;7.614;2023-02-17T09:16:26;6.03;;;3.57;;
5147;SDS011;2592;48.140;7.614;2023-02-17T09:18:53;5.07;;;3.70;;
5147;SDS011;2592;48.140;7.614;2023-02-17T09:21:20;5.00;;;2.90;;
5147;SDS011;2592;48.140;7.614;2023-02-17T09:23:47;5.13;;;3.20;;
5147;SDS011;2592;48.140;7.614;2023-02-17T09:26:15;6.53;;;2.70;;
5147;SDS011;2592;48.140;7.614;2023-02-17T09:28:41;5.93;;;2.73;;
5147;SDS011;2592;48.140;7.614;2023-02-17T09:31:09;4.23;;;2.97;;
5147;SDS011;2592;48.140;7.614;2023-02-17T09:33:35;4.00;;;2.60;;
5147;SDS011;2592;48.140;7.614;2023-02-17T09:36:02;5.93;;;3.63;;
5147;SDS011;2592;48.140;7.614;2023-02-17T09:38:28;5.27;;;3.10;;
5147;SDS011;2592;48.140;7.614;2023-02-17T09:40:56;7.07;;;3.53;;
5147;SDS011;2592;48.140;7.614;2023-02-17T09:43:27;10.13;;;5.30;;
5147;SDS011;2592;48.140;7.614;2023-02-17T09:45:56;5.13;;;4.20;;
5147;SDS011;2592;48.140;7.614;2023-02-17T09:48:24;6.40;;;4.07;;
5147;SDS011;2592;48.140;7.614;2023-02-17T09:50:53;3.43;;;3.10;;
5147;SDS011;2592;48.140;7.614;2023-02-17T09:53:21;5.60;;;3.17;;
5147;SDS011;2592;48.140;7.614;2023-02-17T09:55:51;3.00;;;2.70;;
5147;SDS011;2592;48.140;7.614;2023-02-17T09:58:21;3.10;;;2.60;;
5147;SDS011;2592;48.140;7.614;2023-02-17T10:00:49;4.37;;;3.37;;
5147;SDS011;2592;48.140;7.614;2023-02-17T10:03:17;4.07;;;3.20;;
5147;SDS011;2592;48.140;7.614;2023-02-17T10:05:45;5.20;;;2.90;;
5147;SDS011;2592;48.140;7.614;2023-02-17T10:08:14;6.63;;;3.80;;
5147;SDS011;2592;48.140;7.614;2023-02-17T10:10:43;3.30;;;3.00;;
5147;SDS011;2592;48.140;7.614;2023-02-17T10:13:10;5.13;;;2.90;;
5147;SDS011;2592;48.140;7.614;2023-02-17T10:15:40;7.30;;;3.83;;
5147;SDS011;2592;48.140;7.614;2023-02-17T10:18:09;3.63;;;3.30;;
5147;SDS011;2592;48.140;7.614;2023-02-17T10:20:38;6.87;;;3.50;;
5147;SDS011;2592;48.140;7.614;2023-02-17T10:23:06;5.27;;;3.33;;
5147;SDS011;2592;48.140;7.614;2023-02-17T10:25:40;5.20;;;3.33;;
5147;SDS011;2592;48.140;7.614;2023-02-17T10:28:11;5.80;;;3.73;;
5147;SDS011;2592;48.140;7.614;2023-02-17T10:30:45;4.40;;;3.20;;
5147;SDS011;2592;48.140;7.614;2023-02-17T10:33:13;9.20;;;3.60;;
5147;SDS011;2592;48.140;7.614;2023-02-17T10:35:49;6.10;;;3.33;;
5147;SDS011;2592;48.140;7.614;2023-02-17T10:38:16;9.30;;;4.60;;
5147;SDS011;2592;48.140;7.614;2023-02-17T10:40:44;6.10;;;3.30;;
5147;SDS011;2592;48.140;7.614;2023-02-17T10:43:11;9.70;;;3.70;;
5147;SDS011;2592;48.140;7.614;2023-02-17T10:45:40;5.10;;;3.47;;
5147;SDS011;2592;48.140;7.614;2023-02-17T10:48:11;4.70;;;2.77;;
5147;SDS011;2592;48.140;7.614;2023-02-17T10:50:38;9.30;;;3.70;;
5147;SDS011;2592;48.140;7.614;2023-02-17T10:53:10;4.77;;;3.40;;
5147;SDS011;2592;48.140;7.614;2023-02-17T10:55:38;8.73;;;3.67;;
5147;SDS011;2592;48.140;7.614;2023-02-17T10:58:09;7.17;;;3.40;;
5147;SDS011;2592;48.140;7.614;2023-02-17T11:00:36;6.70;;;3.07;;
5147;SDS011;2592;48.140;7.614;2023-02-17T11:03:03;7.53;;;4.20;;
5147;SDS011;2592;48.140;7.614;2023-02-17T11:05:32;6.47;;;3.97;;
5147;SDS011;2592;48.140;7.614;2023-02-17T11:07:59;5.30;;;3.53;;
5147;SDS011;2592;48.140;7.614;2023-02-17T11:10:27;12.23;;;3.83;;
5147;SDS011;2592;48.140;7.614;2023-02-17T11:12:54;5.70;;;3.67;;
5147;SDS011;2592;48.140;7.614;2023-02-17T11:15:23;13.63;;;4.93;;
5147;SDS011;2592;48.140;7.614;2023-02-17T11:17:50;8.50;;;4.63;;
5147;SDS011;2592;48.140;7.614;2023-02-17T11:20:34;9.53;;;4.43;;
5147;SDS011;2592;48.140;7.614;2023-02-17T11:23:03;6.07;;;3.63;;
5147;SDS011;2592;48.140;7.614;2023-02-17T11:25:31;6.07;;;4.07;;
5147;SDS011;2592;48.140;7.614;2023-02-17T11:27:58;6.53;;;3.77;;
5147;SDS011;2592;48.140;7.614;2023-02-17T11:30:25;7.97;;;4.20;;
5147;SDS011;2592;48.140;7.614;2023-02-17T11:32:51;5.97;;;3.70;;
5147;SDS011;2592;48.140;7.614;2023-02-17T11:35:19;5.77;;;4.00;;
5147;SDS011;2592;48.140;7.614;2023-02-17T11:37:48;4.63;;;3.27;;
5147;SDS011;2592;48.140;7.614;2023-02-17T11:40:24;8.37;;;4.27;;
5147;SDS011;2592;48.140;7.614;2023-02-17T11:42:54;7.90;;;4.30;;
5147;SDS011;2592;48.140;7.614;2023-02-17T11:45:21;9.93;;;4.33;;
5147;SDS011;2592;48.140;7.614;2023-02-17T11:47:50;12.10;;;4.07;;
5147;SDS011;2592;48.140;7.614;2023-02-17T11:50:21;9.03;;;4.87;;
5147;SDS011;2592;48.140;7.614;2023-02-17T11:52:56;19.63;;;4.57;;
5147;SDS011;2592;48.140;7.614;2023-02-17T11:55:27;6.83;;;4.60;;
5147;SDS011;2592;48.140;7.614;2023-02-17T11:57:59;5.80;;;4.30;;
5147;SDS011;2592;48.140;7.614;2023-02-17T12:00:31;5.77;;;4.07;;
5147;SDS011;2592;48.140;7.614;2023-02-17T12:03:08;9.07;;;4.80;;
5147;SDS011;2592;48.140;7.614;2023-02-17T12:05:44;7.50;;;4.37;;
5147;SDS011;2592;48.140;7.614;2023-02-17T12:08:17;11.40;;;5.03;;
5147;SDS011;2592;48.140;7.614;2023-02-17T12:10:51;6.27;;;4.13;;
5147;SDS011;2592;48.140;7.614;2023-02-17T12:13:27;9.33;;;4.67;;
5147;SDS011;2592;48.140;7.614;2023-02-17T12:16:00;7.60;;;4.90;;
5147;SDS011;2592;48.140;7.614;2023-02-17T12:18:34;12.70;;;4.70;;
5147;SDS011;2592;48.140;7.614;2023-02-17T12:21:03;6.03;;;3.80;;
5147;SDS011;2592;48.140;7.614;2023-02-17T12:23:42;9.27;;;5.30;;
5147;SDS011;2592;48.140;7.614;2023-02-17T12:26:13;5.40;;;4.27;;
5147;SDS011;2592;48.140;7.614;2023-02-17T12:28:44;10.93;;;4.03;;
5147;SDS011;2592;48.140;7.614;2023-02-17T12:31:16;17.83;;;4.83;;
5147;SDS011;2592;48.140;7.614;2023-02-17T12:33:49;6.20;;;4.30;;
5147;SDS011;2592;48.140;7.614;2023-02-17T12:36:19;5.33;;;3.73;;
5147;SDS011;2592;48.140;7.614;2023-02-17T12:38:50;9.83;;;3.70;;
5147;SDS011;2592;48.140;7.614;2023-02-17T12:41:19;10.93;;;4.50;;
5147;SDS011;2592;48.140;7.614;2023-02-17T12:43:46;13.40;;;3.93;;
5147;SDS011;2592;48.140;7.614;2023-02-17T12:46:15;5.30;;;3.97;;
5147;SDS011;2592;48.140;7.614;2023-02-17T12:48:43;8.77;;;4.20;;
5147;SDS011;2592;48.140;7.614;2023-02-17T12:51:14;9.80;;;4.80;;
5147;SDS011;2592;48.140;7.614;2023-02-17T12:53:44;7.03;;;4.67;;
5147;SDS011;2592;48.140;7.614;2023-02-17T12:59:10;6.67;;;3.50;;
5147;SDS011;2592;48.140;7.614;2023-02-17T13:01:37;4.57;;;3.40;;
5147;SDS011;2592;48.140;7.614;2023-02-17T13:04:07;7.43;;;3.37;;
5147;SDS011;2592;48.140;7.614;2023-02-17T13:06:35;9.03;;;4.73;;
5147;SDS011;2592;48.140;7.614;2023-02-17T13:09:04;5.30;;;3.60;;
5147;SDS011;2592;48.140;7.614;2023-02-17T13:11:34;6.40;;;2.90;;
5147;SDS011;2592;48.140;7.614;2023-02-17T13:14:09;10.83;;;3.47;;
5147;SDS011;2592;48.140;7.614;2023-02-17T13:16:40;5.50;;;3.60;;
5147;SDS011;2592;48.140;7.614;2023-02-17T13:19:07;11.70;;;3.80;;
5147;SDS011;2592;48.140;7.614;2023-02-17T13:21:33;8.97;;;3.80;;
5147;SDS011;2592;48.140;7.614;2023-02-17T13:24:00;5.63;;;3.00;;
5147;SDS011;2592;48.140;7.614;2023-02-17T13:26:27;5.93;;;4.17;;
5147;SDS011;2592;48.140;7.614;2023-02-17T13:29:05;3.87;;;3.50;;
5147;SDS011;2592;48.140;7.614;2023-02-17T13:31:42;5.73;;;3.00;;
5147;SDS011;2592;48.140;7.614;2023-02-17T13:34:08;7.10;;;3.40;;
5147;SDS011;2592;48.140;7.614;2023-02-17T13:36:36;9.50;;;3.50;;
5147;SDS011;2592;48.140;7.614;2023-02-17T13:39:03;5.80;;;2.90;;
5147;SDS011;2592;48.140;7.614;2023-02-17T13:41:33;6.10;;;2.50;;
5147;SDS011;2592;48.140;7.614;2023-02-17T13:44:11;7.27;;;2.77;;
5147;SDS011;2592;48.140;7.614;2023-02-17T13:46:43;4.40;;;2.50;;
5147;SDS011;2592;48.140;7.614;2023-02-17T13:49:24;3.30;;;2.77;;
5147;SDS011;2592;48.140;7.614;2023-02-17T13:51:51;4.40;;;2.87;;
5147;SDS011;2592;48.140;7.614;2023-02-17T13:54:18;2.90;;;1.90;;
5147;SDS011;2592;48.140;7.614;2023-02-17T13:56:48;3.47;;;2.23;;
5147;SDS011;2592;48.140;7.614;2023-02-17T13:59:15;4.40;;;2.07;;
5147;SDS011;2592;48.140;7.614;2023-02-17T14:01:44;3.57;;;2.10;;
5147;SDS011;2592;48.140;7.614;2023-02-17T14:04:16;5.33;;;1.77;;
5147;SDS011;2592;48.140;7.614;2023-02-17T14:06:43;2.80;;;2.23;;
5147;SDS011;2592;48.140;7.614;2023-02-17T14:09:11;2.00;;;1.53;;
5147;SDS011;2592;48.140;7.614;2023-02-17T14:11:37;5.70;;;2.17;;
5147;SDS011;2592;48.140;7.614;2023-02-17T14:14:05;4.63;;;2.10;;
5147;SDS011;2592;48.140;7.614;2023-02-17T14:16:33;2.93;;;2.30;;
5147;SDS011;2592;48.140;7.614;2023-02-17T14:19:02;5.83;;;2.30;;
5147;SDS011;2592;48.140;7.614;2023-02-17T14:21:29;3.60;;;2.20;;
5147;SDS011;2592;48.140;7.614;2023-02-17T14:23:56;4.07;;;2.13;;
5147;SDS011;2592;48.140;7.614;2023-02-17T14:26:25;7.67;;;1.80;;
5147;SDS011;2592;48.140;7.614;2023-02-17T14:28:53;6.43;;;2.10;;
5147;SDS011;2592;48.140;7.614;2023-02-17T14:31:19;2.73;;;1.80;;
5147;SDS011;2592;48.140;7.614;2023-02-17T14:33:51;2.80;;;1.83;;
5147;SDS011;2592;48.140;7.614;2023-02-17T14:36:25;1.80;;;1.50;;
5147;SDS011;2592;48.140;7.614;2023-02-17T14:38:53;10.10;;;2.43;;
5147;SDS011;2592;48.140;7.614;2023-02-17T14:41:20;3.67;;;2.07;;
5147;SDS011;2592;48.140;7.614;2023-02-17T14:43:46;3.23;;;2.20;;
5147;SDS011;2592;48.140;7.614;2023-02-17T14:46:13;2.33;;;1.87;;
5147;SDS011;2592;48.140;7.614;2023-02-17T14:48:43;10.27;;;1.40;;
5147;SDS011;2592;48.140;7.614;2023-02-17T14:51:09;4.00;;;1.70;;
5147;SDS011;2592;48.140;7.614;2023-02-17T14:53:38;3.00;;;1.80;;
5147;SDS011;2592;48.140;7.614;2023-02-17T14:56:06;10.70;;;2.40;;
5147;SDS011;2592;48.140;7.614;2023-02-17T14:58:33;7.13;;;2.30;;
5147;SDS011;2592;48.140;7.614;2023-02-17T15:00:59;10.23;;;2.27;;
5147;SDS011;2592;48.140;7.614;2023-02-17T15:03:26;3.43;;;2.07;;
5147;SDS011;2592;48.140;7.614;2023-02-17T15:05:52;2.63;;;1.80;;
5147;SDS011;2592;48.140;7.614;2023-02-17T15:08:19;2.07;;;1.47;;
5147;SDS011;2592;48.140;7.614;2023-02-17T15:10:47;2.00;;;1.70;;
5147;SDS011;2592;48.140;7.614;2023-02-17T15:13:15;4.80;;;2.80;;
5147;SDS011;2592;48.140;7.614;2023-02-17T15:15:42;1.40;;;1.30;;
5147;SDS011;2592;48.140;7.614;2023-02-17T15:18:11;2.23;;;1.63;;
5147;SDS011;2592;48.140;7.614;2023-02-17T15:20:39;2.70;;;1.50;;